createdAt,value
2022-10-05T00:00:04.188Z,6.50
2022-10-05T00:05:17.776Z,6.60
2022-10-05T00:10:22.769Z,6.70
2022-10-05T00:15:26.069Z,6.70
2022-10-05T00:20:29.412Z,6.90
2022-10-05T00:25:34.399Z,7.20
2022-10-05T00:30:37.937Z,7.40
2022-10-05T00:35:41.251Z,7.60
2022-10-05T00:41:06.058Z,7.40
2022-10-05T00:46:15.719Z,7.40
2022-10-05T00:51:26.210Z,7.30
2022-10-05T00:56:44.395Z,7.20
2022-10-05T01:01:56.920Z,7.30
2022-10-05T01:07:11.187Z,7.10
2022-10-05T01:12:22.705Z,7.60
2022-10-05T01:17:33.804Z,6.90
2022-10-05T01:22:53.095Z,7.00
2022-10-05T01:28:04.300Z,7.20
2022-10-05T01:33:17.582Z,7.30
2022-10-05T01:38:31.106Z,7.20
2022-10-05T01:43:44.156Z,7.00
2022-10-05T01:49:00.939Z,7.00
2022-10-05T01:54:11.685Z,7.00
2022-10-05T01:59:30.081Z,6.90
2022-10-05T02:05:01.093Z,6.70
2022-10-05T02:10:06.066Z,6.80
2022-10-05T02:15:16.086Z,6.90
2022-10-05T02:20:26.048Z,6.80
2022-10-05T02:25:32.405Z,6.80
2022-10-05T02:30:44.097Z,6.70
2022-10-05T02:35:48.114Z,6.60
2022-10-05T02:40:59.621Z,6.60
2022-10-05T02:46:13.880Z,6.70
2022-10-05T02:51:22.625Z,6.40
2022-10-05T02:56:34.492Z,6.40
2022-10-05T03:01:45.554Z,6.50
2022-10-05T03:06:56.385Z,6.60
2022-10-05T03:12:11.174Z,6.60
2022-10-05T03:17:20.329Z,6.50
2022-10-05T03:22:38.858Z,6.50
2022-10-05T03:27:48.583Z,6.30
2022-10-05T03:33:04.214Z,6.30
2022-10-05T03:38:13.995Z,6.40
2022-10-05T03:43:36.748Z,6.10
2022-10-05T03:48:49.758Z,5.90
2022-10-05T03:59:09.301Z,5.50
2022-10-05T04:04:22.275Z,5.60
2022-10-05T04:09:31.069Z,5.80
2022-10-05T04:14:39.864Z,5.80
2022-10-05T04:19:52.292Z,5.80
2022-10-05T04:30:09.277Z,6.00
2022-10-05T04:40:40.353Z,5.80
2022-10-05T04:46:06.678Z,5.60
2022-10-05T04:51:27.438Z,5.60
2022-10-05T04:56:37.448Z,5.50
2022-10-05T05:01:56.688Z,5.50
2022-10-05T05:07:17.110Z,5.60
2022-10-05T05:12:31.561Z,5.80
2022-10-05T05:17:50.206Z,6.00
2022-10-05T05:23:05.839Z,6.00
2022-10-05T05:28:21.121Z,6.00
2022-10-05T05:33:30.127Z,5.90
2022-10-05T05:38:41.288Z,5.90
2022-10-05T05:43:59.169Z,5.90
2022-10-05T05:49:09.100Z,5.90
2022-10-05T05:54:27.494Z,6.10
2022-10-05T05:59:42.085Z,6.40
2022-10-05T06:04:50.656Z,6.40
2022-10-05T06:10:02.581Z,6.60
2022-10-05T06:15:23.070Z,6.90
2022-10-05T06:20:29.701Z,7.00
2022-10-05T06:25:45.733Z,7.30
2022-10-05T06:31:01.899Z,7.60
2022-10-05T06:36:23.606Z,7.50
2022-10-05T06:41:38.009Z,7.60
2022-10-05T06:46:54.934Z,8.00
2022-10-05T06:52:27.325Z,8.70
2022-10-05T06:57:55.711Z,9.00
2022-10-05T07:03:04.768Z,11.60
2022-10-05T07:08:14.680Z,12.50
2022-10-05T07:13:48.249Z,9.90
2022-10-05T07:19:05.677Z,12.40
2022-10-05T07:24:26.527Z,11.70
2022-10-05T07:29:39.437Z,12.90
2022-10-05T07:34:55.225Z,12.70
2022-10-05T07:40:09.923Z,12.80
2022-10-05T07:45:27.240Z,12.70
2022-10-05T07:50:36.074Z,13.30
2022-10-05T07:55:45.357Z,13.80
2022-10-05T08:01:01.761Z,13.60
2022-10-05T08:06:11.243Z,13.80
2022-10-05T08:11:18.282Z,14.30
2022-10-05T08:16:27.043Z,14.90
2022-10-05T08:21:35.062Z,14.30
2022-10-05T08:26:47.024Z,15.60
2022-10-05T08:31:58.212Z,16.00
2022-10-05T08:37:05.127Z,16.30
2022-10-05T08:42:39.506Z,16.40
2022-10-05T08:48:16.631Z,16.00
2022-10-05T08:53:36.848Z,16.00
2022-10-05T08:59:03.901Z,16.20
2022-10-05T09:04:44.053Z,17.20
2022-10-05T09:10:20.558Z,16.90
2022-10-05T09:15:44.171Z,18.10
2022-10-05T09:20:53.947Z,18.50
2022-10-05T09:26:00.806Z,19.10
2022-10-05T09:31:42.516Z,19.30
2022-10-05T09:37:41.823Z,18.70
2022-10-05T09:43:05.416Z,19.50
2022-10-05T09:48:44.183Z,19.30
2022-10-05T09:54:25.475Z,20.50
2022-10-05T10:00:09.707Z,20.60
2022-10-05T10:05:42.449Z,19.90
2022-10-05T10:11:02.688Z,20.80
2022-10-05T10:16:30.555Z,21.70
2022-10-05T10:22:11.468Z,21.90
2022-10-05T10:27:42.511Z,22.50
2022-10-05T10:33:23.877Z,21.90
2022-10-05T10:38:54.545Z,21.90
2022-10-05T10:44:35.465Z,22.60
2022-10-05T10:49:59.295Z,21.80
2022-10-05T10:55:28.727Z,22.20
2022-10-05T11:00:52.484Z,22.90
2022-10-05T11:06:34.635Z,22.60
2022-10-05T11:12:13.807Z,22.90
2022-10-05T11:17:39.472Z,20.20
2022-10-05T11:22:57.246Z,21.10
2022-10-05T11:28:37.221Z,21.50
2022-10-05T11:34:03.301Z,20.90
2022-10-05T11:39:28.872Z,21.90
2022-10-05T11:45:08.042Z,22.30
2022-10-05T11:50:21.497Z,23.40
2022-10-05T11:55:30.658Z,23.20
2022-10-05T12:00:41.552Z,22.80
2022-10-05T12:06:13.190Z,23.10
2022-10-05T12:11:38.953Z,23.20
2022-10-05T12:16:50.507Z,22.80
2022-10-05T12:22:03.814Z,22.40
2022-10-05T12:27:16.256Z,22.00
2022-10-05T12:32:23.703Z,21.80
2022-10-05T12:37:43.038Z,21.90
2022-10-05T12:43:00.512Z,21.70
2022-10-05T12:48:30.221Z,21.60
2022-10-05T12:53:53.116Z,21.40
2022-10-05T12:59:05.425Z,21.80
2022-10-05T13:04:32.513Z,22.10
2022-10-05T13:09:43.442Z,22.00
2022-10-05T13:14:57.378Z,21.80
2022-10-05T13:20:09.832Z,21.80
2022-10-05T13:25:30.809Z,21.90
2022-10-05T13:30:36.779Z,21.80
2022-10-05T13:35:46.090Z,21.70
2022-10-05T13:40:57.946Z,22.00
2022-10-05T13:46:08.261Z,22.20
2022-10-05T13:51:17.155Z,22.10
2022-10-05T13:56:26.333Z,21.90
2022-10-05T14:01:41.767Z,22.20
2022-10-05T14:06:46.140Z,22.30
2022-10-05T14:11:51.184Z,21.90
2022-10-05T14:16:58.522Z,21.80
2022-10-05T14:22:04.492Z,21.80
2022-10-05T14:27:21.530Z,25.70
2022-10-05T14:32:28.093Z,21.10
2022-10-05T14:37:43.524Z,21.50
2022-10-05T14:42:47.563Z,21.50
2022-10-05T14:47:56.298Z,20.90
2022-10-05T14:53:16.712Z,20.70
2022-10-05T15:04:07.804Z,20.80
2022-10-05T15:09:28.706Z,20.90
2022-10-05T15:14:34.935Z,20.30
2022-10-05T15:19:50.985Z,20.00
2022-10-05T15:25:09.995Z,20.00
2022-10-05T15:30:17.965Z,19.90
2022-10-05T15:35:43.599Z,19.30
2022-10-05T15:40:58.921Z,18.90
2022-10-05T15:46:10.394Z,18.50
2022-10-05T15:51:32.582Z,18.30
2022-10-05T15:56:43.842Z,18.00
2022-10-05T16:01:53.070Z,17.70
2022-10-05T16:07:18.238Z,17.50
2022-10-05T16:12:34.850Z,17.30
2022-10-05T16:17:55.306Z,17.00
2022-10-05T16:23:09.240Z,16.90
2022-10-05T16:28:31.587Z,16.50
2022-10-05T16:33:54.631Z,16.30
2022-10-05T16:39:04.811Z,16.10
2022-10-05T16:44:17.093Z,15.90
2022-10-05T16:49:30.162Z,15.70
2022-10-05T16:54:42.182Z,15.50
2022-10-05T17:00:16.220Z,15.40
2022-10-05T17:05:34.827Z,15.30
2022-10-05T17:10:49.689Z,15.10
2022-10-05T17:16:04.442Z,15.00
2022-10-05T17:21:16.554Z,14.90
2022-10-05T17:26:54.857Z,14.80
2022-10-05T17:32:09.406Z,14.80
2022-10-05T17:37:35.965Z,14.60
2022-10-05T17:43:02.147Z,14.50
2022-10-05T17:48:06.953Z,14.50
2022-10-05T17:53:39.516Z,14.30
2022-10-05T17:59:06.872Z,14.30
2022-10-05T18:04:42.242Z,14.40
2022-10-05T18:09:57.050Z,14.10
2022-10-05T18:15:04.122Z,14.00
2022-10-05T18:20:30.142Z,13.90
2022-10-05T18:25:39.056Z,13.90
2022-10-05T18:31:00.266Z,13.80
2022-10-05T18:36:22.172Z,13.70
2022-10-05T18:41:34.867Z,13.70
2022-10-05T18:46:48.001Z,13.70
2022-10-05T18:51:58.875Z,13.60
2022-10-05T18:57:26.139Z,13.60
2022-10-05T19:02:38.437Z,13.40
2022-10-05T19:07:48.433Z,13.30
2022-10-05T19:13:03.466Z,13.30
2022-10-05T19:18:48.904Z,13.10
2022-10-05T19:24:17.854Z,12.90
2022-10-05T19:29:36.112Z,12.70
2022-10-05T19:34:55.037Z,12.70
2022-10-05T19:40:08.816Z,12.70
2022-10-05T19:45:22.848Z,12.60
2022-10-05T19:50:30.421Z,12.60
2022-10-05T19:55:36.783Z,12.50
2022-10-05T20:00:40.072Z,12.40
2022-10-05T20:05:45.061Z,12.30
2022-10-05T20:11:06.177Z,12.20
2022-10-05T20:16:46.352Z,12.20
2022-10-05T20:21:52.497Z,12.30
2022-10-05T20:27:05.130Z,12.10
2022-10-05T20:32:12.324Z,11.90
2022-10-05T20:37:18.618Z,12.10
2022-10-05T20:42:23.044Z,12.10
2022-10-05T20:47:26.890Z,9.00
2022-10-05T20:52:31.726Z,11.70
2022-10-05T20:57:35.228Z,11.70
2022-10-05T21:02:39.955Z,11.70
2022-10-05T21:07:44.665Z,11.70
2022-10-05T21:12:48.003Z,11.50
2022-10-05T21:17:51.355Z,11.50
2022-10-05T21:22:55.977Z,11.40
2022-10-05T21:27:59.324Z,11.30
2022-10-05T21:33:02.583Z,11.20
2022-10-05T21:38:07.175Z,11.20
2022-10-05T21:43:10.719Z,11.10
2022-10-05T21:48:16.208Z,11.00
2022-10-05T21:53:24.042Z,10.90
2022-10-05T21:58:29.382Z,10.90
2022-10-05T22:03:33.231Z,10.80
2022-10-05T22:08:38.349Z,10.70
2022-10-05T22:13:44.107Z,10.60
2022-10-05T22:18:47.554Z,10.60
2022-10-05T22:23:52.359Z,10.60
2022-10-05T22:28:56.901Z,10.40
2022-10-05T22:34:00.185Z,10.30
2022-10-05T22:39:05.063Z,10.30
2022-10-05T22:44:09.025Z,10.20
2022-10-05T22:49:12.279Z,10.30
2022-10-05T22:54:17.034Z,10.10
2022-10-05T22:59:20.452Z,10.10
2022-10-05T23:04:23.838Z,10.10
2022-10-05T23:09:28.712Z,10.10
2022-10-05T23:14:33.298Z,10.10
2022-10-05T23:19:36.565Z,10.10
2022-10-05T23:24:41.170Z,9.90
2022-10-05T23:29:44.600Z,10.10
2022-10-05T23:34:47.898Z,10.20
2022-10-05T23:39:52.507Z,10.10
2022-10-05T23:44:55.742Z,10.20
2022-10-05T23:49:59.182Z,9.80
2022-10-05T23:55:04.149Z,10.20
